createdAt,value
2023-04-27T00:02:13.493Z,4.90
2023-04-27T00:04:41.548Z,5.00
2023-04-27T00:07:09.663Z,5.00
2023-04-27T00:09:37.501Z,5.10
2023-04-27T00:12:06.294Z,5.10
2023-04-27T00:14:34.114Z,5.10
2023-04-27T00:17:03.323Z,5.10
2023-04-27T00:19:31.357Z,5.10
2023-04-27T00:22:00.207Z,5.10
2023-04-27T00:24:28.289Z,5.20
2023-04-27T00:26:56.506Z,5.20
2023-04-27T00:29:24.306Z,5.10
2023-04-27T00:31:52.196Z,5.10
2023-04-27T00:34:21.345Z,5.10
2023-04-27T00:36:49.166Z,5.10
2023-04-27T00:39:17.092Z,5.10
2023-04-27T00:41:45.103Z,5.10
2023-04-27T00:44:12.918Z,5.10
2023-04-27T00:46:40.838Z,5.10
2023-04-27T00:49:08.660Z,5.00
2023-04-27T00:51:37.851Z,5.00
2023-04-27T00:54:06.089Z,5.00
2023-04-27T00:56:33.908Z,5.00
2023-04-27T00:59:02.030Z,5.10
2023-04-27T01:01:30.910Z,5.10
2023-04-27T01:03:59.017Z,5.10
2023-04-27T01:06:28.217Z,5.00
2023-04-27T01:08:57.598Z,5.00
2023-04-27T01:11:25.568Z,4.90
2023-04-27T01:13:53.769Z,4.80
2023-04-27T01:16:21.819Z,4.80
2023-04-27T01:18:49.757Z,4.80
2023-04-27T01:21:17.687Z,4.80
2023-04-27T01:23:46.860Z,4.80
2023-04-27T01:26:16.397Z,4.90
2023-04-27T01:28:44.474Z,4.90
2023-04-27T01:31:12.826Z,4.90
2023-04-27T01:33:41.051Z,5.00
2023-04-27T01:36:09.913Z,5.00
2023-04-27T01:38:38.244Z,5.00
2023-04-27T01:41:09.237Z,5.00
2023-04-27T01:43:38.029Z,4.90
2023-04-27T01:46:09.908Z,4.90
2023-04-27T01:48:38.149Z,4.90
2023-04-27T01:51:06.158Z,4.80
2023-04-27T01:53:34.309Z,4.80
2023-04-27T01:56:02.187Z,4.70
2023-04-27T01:58:31.484Z,4.80
2023-04-27T02:00:59.333Z,4.80
2023-04-27T02:03:27.349Z,4.70
2023-04-27T02:05:55.277Z,4.70
2023-04-27T02:08:23.169Z,4.70
2023-04-27T02:10:51.062Z,4.70
2023-04-27T02:13:18.930Z,4.70
2023-04-27T02:15:48.139Z,4.70
2023-04-27T02:18:16.134Z,4.80
2023-04-27T02:20:44.052Z,4.80
2023-04-27T02:23:11.851Z,4.80
2023-04-27T02:25:42.914Z,4.80
2023-04-27T02:28:10.774Z,4.80
2023-04-27T02:30:39.072Z,4.80
2023-04-27T02:33:08.304Z,4.80
2023-04-27T02:35:36.336Z,4.70
2023-04-27T02:38:04.165Z,4.70
2023-04-27T02:40:31.984Z,4.70
2023-04-27T02:42:59.985Z,4.60
2023-04-27T02:45:28.609Z,4.60
2023-04-27T02:47:56.549Z,4.60
2023-04-27T02:50:25.853Z,4.60
2023-04-27T02:52:53.752Z,4.60
2023-04-27T02:55:22.337Z,4.70
2023-04-27T02:57:50.164Z,4.70
2023-04-27T03:00:18.925Z,4.70
2023-04-27T03:02:47.362Z,4.70
2023-04-27T03:05:15.318Z,4.70
2023-04-27T03:07:44.641Z,4.80
2023-04-27T03:10:12.556Z,4.80
2023-04-27T03:12:40.374Z,4.70
2023-04-27T03:15:09.273Z,4.70
2023-04-27T03:17:37.140Z,4.70
2023-04-27T03:20:08.527Z,4.70
2023-04-27T03:22:36.456Z,4.80
2023-04-27T03:25:06.893Z,4.80
2023-04-27T03:27:34.700Z,4.80
2023-04-27T03:30:03.480Z,4.80
2023-04-27T03:32:31.502Z,4.90
2023-04-27T03:34:59.504Z,4.90
2023-04-27T03:37:28.055Z,5.00
2023-04-27T03:39:55.903Z,5.00
2023-04-27T03:42:25.180Z,5.00
2023-04-27T03:44:53.022Z,5.00
2023-04-27T03:47:20.869Z,4.80
2023-04-27T03:49:48.769Z,4.80
2023-04-27T03:52:16.675Z,4.80
2023-04-27T03:54:44.585Z,4.80
2023-04-27T03:57:12.426Z,4.80
2023-04-27T03:59:41.628Z,4.90
2023-04-27T04:02:09.540Z,4.90
2023-04-27T04:04:37.576Z,4.90
2023-04-27T04:07:05.843Z,4.90
2023-04-27T04:09:33.727Z,4.80
2023-04-27T04:12:01.850Z,4.90
2023-04-27T04:14:29.736Z,4.80
2023-04-27T04:16:58.940Z,4.80
2023-04-27T04:19:26.877Z,4.80
2023-04-27T04:21:57.025Z,4.80
2023-04-27T04:24:25.116Z,4.80
2023-04-27T04:26:52.996Z,4.80
2023-04-27T04:29:21.867Z,4.80
2023-04-27T04:31:50.072Z,4.80
2023-04-27T04:34:19.490Z,4.80
2023-04-27T04:36:47.333Z,4.90
2023-04-27T04:39:15.931Z,5.00
2023-04-27T04:41:44.064Z,5.10
2023-04-27T04:44:12.069Z,5.30
2023-04-27T04:46:40.083Z,5.50
2023-04-27T04:49:08.025Z,5.70
2023-04-27T04:51:37.444Z,6.00
2023-04-27T04:54:05.565Z,6.20
2023-04-27T04:56:33.394Z,6.50
2023-04-27T04:59:01.374Z,6.70
2023-04-27T05:01:29.340Z,6.90
2023-04-27T05:03:57.460Z,6.90
2023-04-27T05:06:25.431Z,6.80
2023-04-27T05:08:54.800Z,6.60
2023-04-27T05:11:23.175Z,6.50
2023-04-27T05:13:51.062Z,6.30
2023-04-27T05:16:18.946Z,6.20
2023-04-27T05:18:46.863Z,6.20
2023-04-27T05:21:15.951Z,6.20
2023-04-27T05:23:43.886Z,6.40
2023-04-27T05:26:18.078Z,6.70
2023-04-27T05:28:47.007Z,7.10
2023-04-27T05:31:15.040Z,7.50
2023-04-27T05:33:42.921Z,7.90
2023-04-27T05:36:11.024Z,8.30
2023-04-27T05:38:40.367Z,8.50
2023-04-27T05:41:08.419Z,8.80
2023-04-27T05:43:38.864Z,9.30
2023-04-27T05:46:06.978Z,9.50
2023-04-27T05:48:35.364Z,10.00
2023-04-27T05:51:04.077Z,10.30
2023-04-27T05:53:33.398Z,10.30
2023-04-27T05:56:01.706Z,10.00
2023-04-27T05:58:29.689Z,9.90
2023-04-27T06:00:58.931Z,9.60
2023-04-27T06:03:27.306Z,9.40
2023-04-27T06:05:58.158Z,9.40
2023-04-27T06:08:27.345Z,9.40
2023-04-27T06:10:55.463Z,9.40
2023-04-27T06:13:23.925Z,9.40
2023-04-27T06:15:51.867Z,9.60
2023-04-27T06:18:21.121Z,9.70
2023-04-27T06:20:49.025Z,9.80
2023-04-27T06:23:16.841Z,9.80
2023-04-27T06:25:45.309Z,9.70
2023-04-27T06:28:13.254Z,9.60
2023-04-27T06:30:41.134Z,9.40
2023-04-27T06:33:10.053Z,9.30
2023-04-27T06:35:39.315Z,9.10
2023-04-27T06:38:08.081Z,9.10
2023-04-27T06:40:37.054Z,8.90
2023-04-27T06:43:04.962Z,9.00
2023-04-27T06:45:32.796Z,9.00
2023-04-27T06:48:00.969Z,9.10
2023-04-27T06:50:29.222Z,9.30
2023-04-27T06:52:58.536Z,9.60
2023-04-27T06:55:26.592Z,9.60
2023-04-27T06:57:54.438Z,9.60
2023-04-27T07:00:22.713Z,9.60
2023-04-27T07:02:51.447Z,9.60
2023-04-27T07:05:19.550Z,9.90
2023-04-27T07:07:47.550Z,10.20
2023-04-27T07:10:16.837Z,10.30
2023-04-27T07:12:44.966Z,10.60
2023-04-27T07:15:13.158Z,10.90
2023-04-27T07:17:41.418Z,11.00
2023-04-27T07:20:10.301Z,11.20
2023-04-27T07:22:38.396Z,11.20
2023-04-27T07:25:07.259Z,11.30
2023-04-27T07:27:36.623Z,11.40
2023-04-27T07:30:05.565Z,11.40
2023-04-27T07:32:33.485Z,11.50
2023-04-27T07:35:01.316Z,11.60
2023-04-27T07:37:29.623Z,11.90
2023-04-27T07:39:57.725Z,12.20
2023-04-27T07:42:25.994Z,12.70
2023-04-27T07:44:55.258Z,13.30
2023-04-27T07:47:23.899Z,13.60
2023-04-27T07:49:52.884Z,13.80
2023-04-27T07:52:20.729Z,13.90
2023-04-27T07:54:48.576Z,13.80
2023-04-27T07:57:16.631Z,13.70
2023-04-27T07:59:44.584Z,13.50
2023-04-27T08:02:19.871Z,13.40
2023-04-27T08:04:49.222Z,13.50
2023-04-27T08:07:18.220Z,13.60
2023-04-27T08:09:46.427Z,13.70
2023-04-27T08:12:14.292Z,14.00
2023-04-27T08:14:42.169Z,14.40
2023-04-27T08:17:10.046Z,14.60
2023-04-27T08:19:39.607Z,14.90
2023-04-27T08:22:07.441Z,15.30
2023-04-27T08:24:35.384Z,15.40
2023-04-27T08:27:04.047Z,15.80
2023-04-27T08:29:32.037Z,16.30
2023-04-27T08:32:01.710Z,16.60
2023-04-27T08:34:30.349Z,16.70
2023-04-27T08:37:00.358Z,16.90
2023-04-27T08:39:28.767Z,17.30
2023-04-27T08:41:56.840Z,17.70
2023-04-27T08:44:24.808Z,17.90
2023-04-27T08:46:52.750Z,18.40
2023-04-27T08:49:21.783Z,18.40
2023-04-27T08:51:49.853Z,18.50
2023-04-27T08:54:20.521Z,18.40
2023-04-27T08:56:48.384Z,18.60
2023-04-27T08:59:17.763Z,18.80
2023-04-27T09:01:48.482Z,18.30
2023-04-27T09:04:17.884Z,18.40
2023-04-27T09:06:46.095Z,18.40
2023-04-27T09:09:25.007Z,18.90
2023-04-27T09:11:52.920Z,19.20
2023-04-27T09:14:22.370Z,19.40
2023-04-27T09:16:57.431Z,19.60
2023-04-27T09:19:26.298Z,19.50
2023-04-27T09:22:08.417Z,18.70
2023-04-27T09:24:38.306Z,18.40
2023-04-27T09:27:08.799Z,18.60
2023-04-27T09:29:37.823Z,18.80
2023-04-27T09:32:17.691Z,19.20
2023-04-27T09:34:46.061Z,19.60
2023-04-27T09:37:15.332Z,19.70
2023-04-27T09:39:45.993Z,19.60
2023-04-27T09:42:14.033Z,19.90
2023-04-27T09:44:41.864Z,20.10
2023-04-27T09:47:11.650Z,20.30
2023-04-27T09:49:39.532Z,20.50
2023-04-27T09:52:07.374Z,20.60
2023-04-27T09:54:36.731Z,21.10
2023-04-27T09:57:15.934Z,20.60
2023-04-27T09:59:59.091Z,20.40
2023-04-27T10:02:29.768Z,20.40
2023-04-27T10:05:25.033Z,20.40
2023-04-27T10:07:54.160Z,20.50
2023-04-27T10:10:22.161Z,19.70
2023-04-27T10:13:03.588Z,19.50
2023-04-27T10:15:31.929Z,19.80
2023-04-27T10:18:06.105Z,19.50
2023-04-27T10:20:36.848Z,19.60
2023-04-27T10:23:05.581Z,20.20
2023-04-27T10:25:40.225Z,20.30
2023-04-27T10:28:16.123Z,20.80
2023-04-27T10:30:47.201Z,21.30
2023-04-27T10:33:18.714Z,21.00
2023-04-27T10:35:55.773Z,20.40
2023-04-27T10:38:29.853Z,20.40
2023-04-27T10:41:01.355Z,20.60
2023-04-27T10:43:31.977Z,20.60
2023-04-27T10:46:09.159Z,21.00
2023-04-27T10:48:38.434Z,20.30
2023-04-27T10:51:06.563Z,19.70
2023-04-27T10:53:37.782Z,19.20
2023-04-27T10:56:06.952Z,18.70
2023-04-27T10:58:47.966Z,18.70
2023-04-27T11:01:25.278Z,19.00
2023-04-27T11:03:57.163Z,19.70
2023-04-27T11:06:25.182Z,19.90
2023-04-27T11:08:53.095Z,20.20
2023-04-27T11:11:22.521Z,20.70
2023-04-27T11:13:53.320Z,21.30
2023-04-27T11:16:21.242Z,21.60
2023-04-27T11:18:49.191Z,21.70
2023-04-27T11:21:19.024Z,21.80
2023-04-27T11:23:47.135Z,21.80
2023-04-27T11:26:16.881Z,21.60
2023-04-27T11:28:45.754Z,21.40
2023-04-27T11:31:15.001Z,21.50
2023-04-27T11:33:49.351Z,21.50
2023-04-27T11:36:18.087Z,21.80
2023-04-27T11:38:46.287Z,21.70
2023-04-27T11:41:14.452Z,21.60
2023-04-27T11:43:43.348Z,21.00
2023-04-27T11:46:12.268Z,21.10
2023-04-27T11:48:41.654Z,20.90
2023-04-27T11:51:12.223Z,21.00
2023-04-27T11:53:42.444Z,21.40
2023-04-27T11:56:11.897Z,21.70
2023-04-27T11:58:41.115Z,21.80
2023-04-27T12:01:11.979Z,21.70
2023-04-27T12:03:41.783Z,21.70
2023-04-27T12:06:27.447Z,21.40
2023-04-27T12:08:58.120Z,21.00
2023-04-27T12:11:27.669Z,21.60
2023-04-27T12:13:56.077Z,21.60
2023-04-27T12:16:24.145Z,21.30
2023-04-27T12:18:53.452Z,21.30
2023-04-27T12:21:21.387Z,21.20
2023-04-27T12:23:49.421Z,20.90
2023-04-27T12:26:17.268Z,20.40
2023-04-27T12:28:45.220Z,19.90
2023-04-27T12:31:16.449Z,19.40
2023-04-27T12:33:44.333Z,19.10
2023-04-27T12:36:13.640Z,18.80
2023-04-27T12:38:41.680Z,18.60
2023-04-27T12:41:09.662Z,18.60
2023-04-27T12:43:38.210Z,18.60
2023-04-27T12:46:06.282Z,18.60
2023-04-27T12:48:34.437Z,18.40
2023-04-27T12:51:02.354Z,18.40
2023-04-27T12:53:31.628Z,18.20
2023-04-27T12:56:01.808Z,18.10
2023-04-27T12:58:29.813Z,18.10
2023-04-27T13:00:58.710Z,18.10
2023-04-27T13:03:26.653Z,18.00
2023-04-27T13:05:54.911Z,18.00
2023-04-27T13:08:22.722Z,18.10
2023-04-27T13:10:51.915Z,18.10
2023-04-27T13:13:19.746Z,18.50
2023-04-27T13:15:47.625Z,19.00
2023-04-27T13:18:15.582Z,19.40
2023-04-27T13:20:44.116Z,19.60
2023-04-27T13:23:12.295Z,19.40
2023-04-27T13:25:40.143Z,19.10
2023-04-27T13:28:09.397Z,19.20
2023-04-27T13:30:37.339Z,19.30
2023-04-27T13:33:21.148Z,19.30
2023-04-27T13:35:52.640Z,19.30
2023-04-27T13:38:20.505Z,19.10
2023-04-27T13:40:48.370Z,18.60
2023-04-27T13:43:17.559Z,18.10
2023-04-27T13:45:45.514Z,17.80
2023-04-27T13:48:13.408Z,17.60
2023-04-27T13:50:41.291Z,17.50
2023-04-27T13:53:09.098Z,17.30
2023-04-27T13:55:37.236Z,17.30
2023-04-27T13:58:05.109Z,17.70
2023-04-27T14:00:34.786Z,17.90
2023-04-27T14:03:04.388Z,18.20
2023-04-27T14:05:32.916Z,18.40
2023-04-27T14:08:01.005Z,18.60
2023-04-27T14:10:28.937Z,18.60
2023-04-27T14:12:57.565Z,18.60
2023-04-27T14:15:25.648Z,18.70
2023-04-27T14:17:54.841Z,18.70
2023-04-27T14:20:22.886Z,18.60
2023-04-27T14:22:50.725Z,18.60
2023-04-27T14:25:18.736Z,18.70
2023-04-27T14:27:46.585Z,18.50
2023-04-27T14:30:15.490Z,18.40
2023-04-27T14:32:43.388Z,18.40
2023-04-27T14:35:12.599Z,18.30
2023-04-27T14:37:40.413Z,18.40
2023-04-27T14:40:10.236Z,18.60
2023-04-27T14:42:38.129Z,18.80
2023-04-27T14:45:06.911Z,18.90
2023-04-27T14:47:34.772Z,18.90
2023-04-27T14:50:02.877Z,18.80
2023-04-27T14:52:32.062Z,18.60
2023-04-27T14:55:00.666Z,18.30
2023-04-27T14:57:28.502Z,18.20
2023-04-27T14:59:56.965Z,18.10
2023-04-27T15:02:24.916Z,18.20
2023-04-27T15:04:52.842Z,18.20
2023-04-27T15:07:21.543Z,18.20
2023-04-27T15:09:51.386Z,18.00
2023-04-27T15:12:19.221Z,17.70
2023-04-27T15:14:48.235Z,17.60
2023-04-27T15:17:16.135Z,17.40
2023-04-27T15:19:43.998Z,17.30
2023-04-27T15:22:11.983Z,17.20
2023-04-27T15:24:40.370Z,17.20
2023-04-27T15:27:10.052Z,17.10
2023-04-27T15:29:38.115Z,17.10
2023-04-27T15:32:06.243Z,17.10
2023-04-27T15:34:34.069Z,17.00
2023-04-27T15:37:02.876Z,16.90
2023-04-27T15:39:31.179Z,16.80
2023-04-27T15:41:59.752Z,16.70
2023-04-27T15:44:28.980Z,16.60
2023-04-27T15:46:56.904Z,16.50
2023-04-27T15:49:24.764Z,16.50
2023-04-27T15:51:55.145Z,16.40
2023-04-27T15:54:23.038Z,16.40
2023-04-27T15:56:51.045Z,16.20
2023-04-27T15:59:19.332Z,16.10
2023-04-27T16:01:48.546Z,16.00
2023-04-27T16:04:16.617Z,16.00
2023-04-27T16:06:44.631Z,15.90
2023-04-27T16:09:13.119Z,15.90
2023-04-27T16:11:42.554Z,15.90
2023-04-27T16:14:10.422Z,15.90
2023-04-27T16:16:38.767Z,15.90
2023-04-27T16:19:08.781Z,15.90
2023-04-27T16:21:36.665Z,15.80
2023-04-27T16:24:04.598Z,15.70
2023-04-27T16:26:32.623Z,15.60
2023-04-27T16:29:00.659Z,15.60
2023-04-27T16:31:28.522Z,15.60
2023-04-27T16:33:56.570Z,15.60
2023-04-27T16:36:25.717Z,15.50
2023-04-27T16:38:53.538Z,15.40
2023-04-27T16:41:22.008Z,15.40
2023-04-27T16:43:51.141Z,15.30
2023-04-27T16:46:19.137Z,15.20
2023-04-27T16:48:47.118Z,15.20
2023-04-27T16:51:16.104Z,15.30
2023-04-27T16:53:45.916Z,15.30
2023-04-27T16:56:14.200Z,15.30
2023-04-27T16:58:42.051Z,15.30
2023-04-27T17:01:09.930Z,15.20
2023-04-27T17:03:37.891Z,15.20
2023-04-27T17:06:05.951Z,15.20
2023-04-27T17:08:33.781Z,15.10
2023-04-27T17:11:02.926Z,15.10
2023-04-27T17:13:31.729Z,15.00
2023-04-27T17:15:59.617Z,15.00
2023-04-27T17:18:27.547Z,15.00
2023-04-27T17:20:55.448Z,15.00
2023-04-27T17:23:23.439Z,15.00
2023-04-27T17:25:51.269Z,15.00
2023-04-27T17:28:21.652Z,14.90
2023-04-27T17:30:49.774Z,14.90
2023-04-27T17:33:17.796Z,14.90
2023-04-27T17:35:47.209Z,14.90
2023-04-27T17:38:15.089Z,14.90
2023-04-27T17:40:43.420Z,14.80
2023-04-27T17:43:11.524Z,14.80
2023-04-27T17:45:40.794Z,14.80
2023-04-27T17:48:08.671Z,14.80
2023-04-27T17:50:37.424Z,14.70
2023-04-27T17:53:05.240Z,14.70
2023-04-27T17:55:33.091Z,14.60
2023-04-27T17:58:03.517Z,14.60
2023-04-27T18:00:31.663Z,14.50
2023-04-27T18:03:01.154Z,14.40
2023-04-27T18:05:29.310Z,14.40
2023-04-27T18:07:57.126Z,14.30
2023-04-27T18:10:24.980Z,14.20
2023-04-27T18:12:52.799Z,14.10
2023-04-27T18:15:20.744Z,14.00
2023-04-27T18:17:48.711Z,13.80
2023-04-27T18:20:18.124Z,13.70
2023-04-27T18:22:45.958Z,13.50
2023-04-27T18:25:13.850Z,13.40
2023-04-27T18:27:43.855Z,13.20
2023-04-27T18:30:12.252Z,13.00
2023-04-27T18:32:40.152Z,12.90
2023-04-27T18:35:08.553Z,12.80
2023-04-27T18:37:37.725Z,12.70
2023-04-27T18:40:06.772Z,12.60
2023-04-27T18:42:34.664Z,12.50
2023-04-27T18:45:02.653Z,12.40
2023-04-27T18:47:30.532Z,12.20
2023-04-27T18:49:58.388Z,12.10
2023-04-27T18:52:26.355Z,12.10
2023-04-27T18:54:55.631Z,12.00
2023-04-27T18:57:23.497Z,12.10
2023-04-27T18:59:51.546Z,12.00
2023-04-27T19:02:19.420Z,12.00
2023-04-27T19:04:56.680Z,12.00
2023-04-27T19:07:25.066Z,11.90
2023-04-27T19:09:54.876Z,11.80
2023-04-27T19:12:24.205Z,11.80
2023-04-27T19:14:52.672Z,11.80
2023-04-27T19:17:20.753Z,11.70
2023-04-27T19:19:48.940Z,11.60
2023-04-27T19:22:16.799Z,11.50
2023-04-27T19:24:44.657Z,11.50
2023-04-27T19:27:13.815Z,11.40
2023-04-27T19:29:52.867Z,11.30
2023-04-27T19:32:20.975Z,11.20
2023-04-27T19:34:49.339Z,11.10
2023-04-27T19:37:17.286Z,11.10
2023-04-27T19:39:45.230Z,11.00
2023-04-27T19:42:14.025Z,10.90
2023-04-27T19:44:41.891Z,10.90
2023-04-27T19:47:11.726Z,10.70
2023-04-27T19:49:39.784Z,10.30
2023-04-27T19:52:07.715Z,10.10
2023-04-27T19:54:38.318Z,10.00
2023-04-27T19:57:06.619Z,9.80
2023-04-27T19:59:34.524Z,9.70
2023-04-27T20:02:02.504Z,9.70
2023-04-27T20:04:32.850Z,9.60
2023-04-27T20:07:01.791Z,9.60
2023-04-27T20:09:30.363Z,9.60
2023-04-27T20:11:58.226Z,9.60
2023-04-27T20:14:28.962Z,9.50
2023-04-27T20:16:56.833Z,9.50
2023-04-27T20:19:25.214Z,9.50
2023-04-27T20:21:54.687Z,9.50
2023-04-27T20:24:23.304Z,9.20
2023-04-27T20:26:51.158Z,9.00
2023-04-27T20:29:18.992Z,8.90
2023-04-27T20:31:48.439Z,8.80
2023-04-27T20:34:16.637Z,8.90
2023-04-27T20:36:44.693Z,8.90
2023-04-27T20:39:15.212Z,8.90
2023-04-27T20:41:44.260Z,9.00
2023-04-27T20:44:13.136Z,9.00
2023-04-27T20:46:41.531Z,9.00
2023-04-27T20:49:09.400Z,9.00
2023-04-27T20:51:37.467Z,9.00
2023-04-27T20:54:05.517Z,9.00
2023-04-27T20:56:34.750Z,9.00
2023-04-27T20:59:02.616Z,8.90
2023-04-27T21:01:30.615Z,8.80
2023-04-27T21:03:58.583Z,8.70
2023-04-27T21:06:26.688Z,8.70
2023-04-27T21:08:54.526Z,8.60
2023-04-27T21:11:22.592Z,8.60
2023-04-27T21:13:51.863Z,8.60
2023-04-27T21:16:19.813Z,8.70
2023-04-27T21:18:47.671Z,8.70
2023-04-27T21:21:15.526Z,8.70
2023-04-27T21:23:43.362Z,8.60
2023-04-27T21:26:11.316Z,8.60
2023-04-27T21:28:40.206Z,8.60
2023-04-27T21:31:09.638Z,8.60
2023-04-27T21:33:38.030Z,8.60
2023-04-27T21:36:06.643Z,8.50
2023-04-27T21:38:34.473Z,8.50
2023-04-27T21:41:02.400Z,8.50
2023-04-27T21:43:30.286Z,8.50
2023-04-27T21:45:58.129Z,8.50
2023-04-27T21:48:27.283Z,8.50
2023-04-27T21:50:55.104Z,8.50
2023-04-27T21:53:23.109Z,8.50
2023-04-27T21:55:51.247Z,8.60
2023-04-27T21:58:19.094Z,8.60
2023-04-27T22:00:47.939Z,8.60
2023-04-27T22:03:16.185Z,8.60
2023-04-27T22:05:48.761Z,8.60
2023-04-27T22:08:17.381Z,8.50
2023-04-27T22:10:46.545Z,8.50
2023-04-27T22:15:45.844Z,8.40
2023-04-27T22:18:14.385Z,8.50
2023-04-27T22:20:42.535Z,8.50
2023-04-27T22:23:12.029Z,8.50
2023-04-27T22:25:42.556Z,8.60
2023-04-27T22:28:10.483Z,8.60
2023-04-27T22:30:38.670Z,8.60
2023-04-27T22:33:06.696Z,8.50
2023-04-27T22:35:34.925Z,8.60
2023-04-27T22:38:02.901Z,8.60
2023-04-27T22:40:32.116Z,8.70
2023-04-27T22:42:59.946Z,8.70
2023-04-27T22:45:27.758Z,8.60
2023-04-27T22:47:55.772Z,8.70
2023-04-27T22:50:23.677Z,8.70
2023-04-27T22:52:52.980Z,8.70
2023-04-27T22:55:21.168Z,8.70
2023-04-27T22:57:50.769Z,8.80
2023-04-27T23:00:18.893Z,8.90
2023-04-27T23:02:47.284Z,8.90
2023-04-27T23:05:15.225Z,8.90
2023-04-27T23:07:43.379Z,8.90
2023-04-27T23:10:12.911Z,9.00
2023-04-27T23:12:40.750Z,9.00
2023-04-27T23:15:10.814Z,9.00
2023-04-27T23:17:38.697Z,9.00
2023-04-27T23:20:24.051Z,9.10
2023-04-27T23:22:55.009Z,9.10
2023-04-27T23:25:22.857Z,9.10
2023-04-27T23:27:52.103Z,9.10
2023-04-27T23:30:22.403Z,9.10
2023-04-27T23:32:50.545Z,9.10
2023-04-27T23:35:18.529Z,9.10
2023-04-27T23:37:46.369Z,9.00
2023-04-27T23:40:14.340Z,9.00
2023-04-27T23:42:42.179Z,9.00
2023-04-27T23:45:10.603Z,9.10
2023-04-27T23:47:39.876Z,9.20
2023-04-27T23:50:08.799Z,9.20
2023-04-27T23:52:37.068Z,9.10
2023-04-27T23:55:05.444Z,9.10
2023-04-27T23:57:33.264Z,9.00
